sensor_id;sensor_type;location;lat;lon;timestamp;P1;durP1;ratioP1;P2;durP2;ratioP2
45970;SDS011;31681;48.982;8.394;2023-03-19T00:01:59;7.57;;;4.03;;
45970;SDS011;31681;48.982;8.394;2023-03-19T00:04:25;8.38;;;4.13;;
45970;SDS011;31681;48.982;8.394;2023-03-19T00:06:51;7.65;;;4.57;;
45970;SDS011;31681;48.982;8.394;2023-03-19T00:09:17;6.85;;;4.10;;
45970;SDS011;31681;48.982;8.394;2023-03-19T00:11:43;6.60;;;3.90;;
45970;SDS011;31681;48.982;8.394;2023-03-19T00:14:09;8.13;;;4.22;;
45970;SDS011;31681;48.982;8.394;2023-03-19T00:16:34;7.35;;;3.65;;
45970;SDS011;31681;48.982;8.394;2023-03-19T00:19:00;5.28;;;3.92;;
45970;SDS011;31681;48.982;8.394;2023-03-19T00:21:28;7.80;;;3.78;;
45970;SDS011;31681;48.982;8.394;2023-03-19T00:23:53;9.23;;;4.00;;
45970;SDS011;31681;48.982;8.394;2023-03-19T00:26:25;6.60;;;3.65;;
45970;SDS011;31681;48.982;8.394;2023-03-19T00:28:51;6.68;;;4.10;;
45970;SDS011;31681;48.982;8.394;2023-03-19T00:31:17;5.75;;;3.72;;
45970;SDS011;31681;48.982;8.394;2023-03-19T00:33:42;6.45;;;3.92;;
45970;SDS011;31681;48.982;8.394;2023-03-19T00:36:08;7.00;;;3.75;;
45970;SDS011;31681;48.982;8.394;2023-03-19T00:38:35;7.13;;;3.83;;
45970;SDS011;31681;48.982;8.394;2023-03-19T00:41:01;4.22;;;2.90;;
45970;SDS011;31681;48.982;8.394;2023-03-19T00:43:28;9.32;;;3.58;;
45970;SDS011;31681;48.982;8.394;2023-03-19T00:45:53;6.75;;;3.40;;
45970;SDS011;31681;48.982;8.394;2023-03-19T00:48:19;6.75;;;3.53;;
45970;SDS011;31681;48.982;8.394;2023-03-19T00:50:46;5.25;;;3.60;;
45970;SDS011;31681;48.982;8.394;2023-03-19T00:53:12;6.35;;;3.63;;
45970;SDS011;31681;48.982;8.394;2023-03-19T00:55:37;3.90;;;3.10;;
45970;SDS011;31681;48.982;8.394;2023-03-19T00:58:03;6.72;;;3.33;;
45970;SDS011;31681;48.982;8.394;2023-03-19T01:00:30;6.50;;;3.30;;
45970;SDS011;31681;48.982;8.394;2023-03-19T01:03:00;6.75;;;4.00;;
45970;SDS011;31681;48.982;8.394;2023-03-19T01:05:26;6.55;;;3.42;;
45970;SDS011;31681;48.982;8.394;2023-03-19T01:07:51;5.50;;;3.60;;
45970;SDS011;31681;48.982;8.394;2023-03-19T01:10:18;5.70;;;3.38;;
45970;SDS011;31681;48.982;8.394;2023-03-19T01:12:45;7.70;;;3.67;;
45970;SDS011;31681;48.982;8.394;2023-03-19T01:15:11;8.73;;;3.15;;
45970;SDS011;31681;48.982;8.394;2023-03-19T01:17:37;6.50;;;3.08;;
45970;SDS011;31681;48.982;8.394;2023-03-19T01:20:03;5.03;;;3.15;;
45970;SDS011;31681;48.982;8.394;2023-03-19T01:22:36;5.18;;;3.25;;
45970;SDS011;31681;48.982;8.394;2023-03-19T01:25:03;6.75;;;3.40;;
45970;SDS011;31681;48.982;8.394;2023-03-19T01:27:30;7.25;;;3.05;;
45970;SDS011;31681;48.982;8.394;2023-03-19T01:29:56;5.15;;;3.00;;
45970;SDS011;31681;48.982;8.394;2023-03-19T01:32:40;4.68;;;3.13;;
45970;SDS011;31681;48.982;8.394;2023-03-19T01:35:22;4.97;;;3.13;;
45970;SDS011;31681;48.982;8.394;2023-03-19T01:37:47;6.47;;;3.30;;
45970;SDS011;31681;48.982;8.394;2023-03-19T01:40:13;8.35;;;3.33;;
45970;SDS011;31681;48.982;8.394;2023-03-19T01:42:52;7.15;;;3.33;;
45970;SDS011;31681;48.982;8.394;2023-03-19T01:45:38;5.95;;;3.22;;
45970;SDS011;31681;48.982;8.394;2023-03-19T01:48:42;5.30;;;2.97;;
45970;SDS011;31681;48.982;8.394;2023-03-19T01:51:15;4.95;;;2.65;;
45970;SDS011;31681;48.982;8.394;2023-03-19T01:53:44;5.10;;;3.10;;
45970;SDS011;31681;48.982;8.394;2023-03-19T01:56:33;5.30;;;3.38;;
45970;SDS011;31681;48.982;8.394;2023-03-19T01:59:24;4.43;;;3.30;;
45970;SDS011;31681;48.982;8.394;2023-03-19T02:05:02;7.75;;;3.17;;
45970;SDS011;31681;48.982;8.394;2023-03-19T02:07:31;5.70;;;2.97;;
45970;SDS011;31681;48.982;8.394;2023-03-19T02:09:59;5.70;;;2.90;;
45970;SDS011;31681;48.982;8.394;2023-03-19T02:12:27;4.32;;;2.95;;
45970;SDS011;31681;48.982;8.394;2023-03-19T02:14:53;6.57;;;3.05;;
45970;SDS011;31681;48.982;8.394;2023-03-19T02:17:20;3.92;;;3.13;;
45970;SDS011;31681;48.982;8.394;2023-03-19T02:22:22;4.53;;;2.90;;
45970;SDS011;31681;48.982;8.394;2023-03-19T02:24:55;4.30;;;3.08;;
45970;SDS011;31681;48.982;8.394;2023-03-19T02:27:26;5.45;;;3.15;;
45970;SDS011;31681;48.982;8.394;2023-03-19T02:29:52;6.18;;;3.90;;
45970;SDS011;31681;48.982;8.394;2023-03-19T02:32:19;6.25;;;3.28;;
45970;SDS011;31681;48.982;8.394;2023-03-19T02:34:44;4.13;;;3.10;;
45970;SDS011;31681;48.982;8.394;2023-03-19T02:37:21;5.32;;;3.20;;
45970;SDS011;31681;48.982;8.394;2023-03-19T02:39:57;5.15;;;3.17;;
45970;SDS011;31681;48.982;8.394;2023-03-19T02:42:28;4.53;;;2.92;;
45970;SDS011;31681;48.982;8.394;2023-03-19T02:44:55;5.88;;;3.25;;
45970;SDS011;31681;48.982;8.394;2023-03-19T02:47:22;6.40;;;3.15;;
45970;SDS011;31681;48.982;8.394;2023-03-19T02:49:48;5.13;;;3.05;;
45970;SDS011;31681;48.982;8.394;2023-03-19T02:52:16;4.25;;;2.95;;
45970;SDS011;31681;48.982;8.394;2023-03-19T02:54:42;4.88;;;3.35;;
45970;SDS011;31681;48.982;8.394;2023-03-19T02:57:07;4.25;;;3.25;;
45970;SDS011;31681;48.982;8.394;2023-03-19T02:59:33;3.95;;;2.97;;
45970;SDS011;31681;48.982;8.394;2023-03-19T03:01:58;4.07;;;3.00;;
45970;SDS011;31681;48.982;8.394;2023-03-19T03:04:24;6.45;;;2.97;;
45970;SDS011;31681;48.982;8.394;2023-03-19T03:06:51;10.15;;;3.10;;
45970;SDS011;31681;48.982;8.394;2023-03-19T03:09:16;5.60;;;3.05;;
45970;SDS011;31681;48.982;8.394;2023-03-19T03:11:42;5.82;;;2.92;;
45970;SDS011;31681;48.982;8.394;2023-03-19T03:14:08;5.22;;;3.45;;
45970;SDS011;31681;48.982;8.394;2023-03-19T03:16:34;5.40;;;3.67;;
45970;SDS011;31681;48.982;8.394;2023-03-19T03:18:59;6.97;;;3.15;;
45970;SDS011;31681;48.982;8.394;2023-03-19T03:21:26;5.57;;;3.20;;
45970;SDS011;31681;48.982;8.394;2023-03-19T03:23:54;8.10;;;3.35;;
45970;SDS011;31681;48.982;8.394;2023-03-19T03:26:20;5.28;;;3.03;;
45970;SDS011;31681;48.982;8.394;2023-03-19T03:28:46;4.93;;;2.80;;
45970;SDS011;31681;48.982;8.394;2023-03-19T03:31:11;9.32;;;3.63;;
45970;SDS011;31681;48.982;8.394;2023-03-19T03:33:38;5.40;;;3.33;;
45970;SDS011;31681;48.982;8.394;2023-03-19T03:36:04;11.23;;;3.50;;
45970;SDS011;31681;48.982;8.394;2023-03-19T03:38:31;5.70;;;3.17;;
45970;SDS011;31681;48.982;8.394;2023-03-19T03:40:57;5.63;;;3.13;;
45970;SDS011;31681;48.982;8.394;2023-03-19T03:43:24;3.65;;;2.83;;
45970;SDS011;31681;48.982;8.394;2023-03-19T03:45:50;4.30;;;2.75;;
45970;SDS011;31681;48.982;8.394;2023-03-19T03:48:16;6.22;;;3.03;;
45970;SDS011;31681;48.982;8.394;2023-03-19T03:50:42;5.13;;;3.03;;
45970;SDS011;31681;48.982;8.394;2023-03-19T03:53:11;3.30;;;2.70;;
45970;SDS011;31681;48.982;8.394;2023-03-19T03:55:37;6.82;;;3.10;;
45970;SDS011;31681;48.982;8.394;2023-03-19T03:58:03;5.32;;;3.20;;
45970;SDS011;31681;48.982;8.394;2023-03-19T04:00:28;5.15;;;2.95;;
45970;SDS011;31681;48.982;8.394;2023-03-19T04:02:54;5.25;;;2.88;;
45970;SDS011;31681;48.982;8.394;2023-03-19T04:05:20;5.50;;;3.17;;
45970;SDS011;31681;48.982;8.394;2023-03-19T04:07:46;5.55;;;3.20;;
45970;SDS011;31681;48.982;8.394;2023-03-19T04:10:12;4.50;;;3.00;;
45970;SDS011;31681;48.982;8.394;2023-03-19T04:12:38;6.90;;;3.70;;
45970;SDS011;31681;48.982;8.394;2023-03-19T04:15:04;6.20;;;3.47;;
45970;SDS011;31681;48.982;8.394;2023-03-19T04:17:32;6.13;;;3.08;;
45970;SDS011;31681;48.982;8.394;2023-03-19T04:19:58;5.78;;;2.72;;
45970;SDS011;31681;48.982;8.394;2023-03-19T04:22:24;4.80;;;2.70;;
45970;SDS011;31681;48.982;8.394;2023-03-19T04:24:49;4.55;;;3.10;;
45970;SDS011;31681;48.982;8.394;2023-03-19T04:27:15;6.28;;;3.15;;
45970;SDS011;31681;48.982;8.394;2023-03-19T04:29:41;6.63;;;3.05;;
45970;SDS011;31681;48.982;8.394;2023-03-19T04:32:07;4.40;;;3.10;;
45970;SDS011;31681;48.982;8.394;2023-03-19T04:34:32;7.50;;;3.25;;
45970;SDS011;31681;48.982;8.394;2023-03-19T04:36:59;4.40;;;2.80;;
45970;SDS011;31681;48.982;8.394;2023-03-19T04:39:25;3.67;;;2.75;;
45970;SDS011;31681;48.982;8.394;2023-03-19T04:41:51;5.75;;;3.40;;
45970;SDS011;31681;48.982;8.394;2023-03-19T04:44:36;3.92;;;2.90;;
45970;SDS011;31681;48.982;8.394;2023-03-19T04:47:03;4.35;;;3.05;;
45970;SDS011;31681;48.982;8.394;2023-03-19T04:49:38;7.35;;;3.13;;
45970;SDS011;31681;48.982;8.394;2023-03-19T04:52:04;4.97;;;2.80;;
45970;SDS011;31681;48.982;8.394;2023-03-19T04:54:30;6.97;;;3.15;;
45970;SDS011;31681;48.982;8.394;2023-03-19T04:56:56;5.40;;;2.70;;
45970;SDS011;31681;48.982;8.394;2023-03-19T04:59:24;6.05;;;3.50;;
45970;SDS011;31681;48.982;8.394;2023-03-19T05:01:50;6.28;;;3.45;;
45970;SDS011;31681;48.982;8.394;2023-03-19T05:04:19;4.18;;;2.65;;
45970;SDS011;31681;48.982;8.394;2023-03-19T05:06:46;6.07;;;2.90;;
45970;SDS011;31681;48.982;8.394;2023-03-19T05:09:11;4.78;;;3.05;;
45970;SDS011;31681;48.982;8.394;2023-03-19T05:11:37;5.65;;;2.67;;
45970;SDS011;31681;48.982;8.394;2023-03-19T05:14:07;3.53;;;2.67;;
45970;SDS011;31681;48.982;8.394;2023-03-19T05:16:44;5.63;;;3.17;;
45970;SDS011;31681;48.982;8.394;2023-03-19T05:19:11;4.90;;;3.38;;
45970;SDS011;31681;48.982;8.394;2023-03-19T05:21:37;4.78;;;3.00;;
45970;SDS011;31681;48.982;8.394;2023-03-19T05:24:03;5.68;;;2.88;;
45970;SDS011;31681;48.982;8.394;2023-03-19T05:26:33;4.05;;;3.10;;
45970;SDS011;31681;48.982;8.394;2023-03-19T05:29:21;5.55;;;3.00;;
45970;SDS011;31681;48.982;8.394;2023-03-19T05:32:13;5.40;;;2.95;;
45970;SDS011;31681;48.982;8.394;2023-03-19T05:34:41;3.70;;;2.88;;
45970;SDS011;31681;48.982;8.394;2023-03-19T05:37:07;4.80;;;2.63;;
45970;SDS011;31681;48.982;8.394;2023-03-19T05:39:33;5.05;;;2.80;;
45970;SDS011;31681;48.982;8.394;2023-03-19T05:42:03;4.35;;;3.13;;
45970;SDS011;31681;48.982;8.394;2023-03-19T05:44:29;7.47;;;3.28;;
45970;SDS011;31681;48.982;8.394;2023-03-19T05:47:14;3.15;;;2.53;;
45970;SDS011;31681;48.982;8.394;2023-03-19T05:49:45;6.32;;;3.10;;
45970;SDS011;31681;48.982;8.394;2023-03-19T05:52:11;3.42;;;3.03;;
45970;SDS011;31681;48.982;8.394;2023-03-19T05:54:37;6.53;;;3.33;;
45970;SDS011;31681;48.982;8.394;2023-03-19T05:57:11;4.25;;;3.28;;
45970;SDS011;31681;48.982;8.394;2023-03-19T05:59:47;6.40;;;3.08;;
45970;SDS011;31681;48.982;8.394;2023-03-19T06:02:31;3.45;;;2.50;;
45970;SDS011;31681;48.982;8.394;2023-03-19T06:05:24;6.05;;;3.03;;
45970;SDS011;31681;48.982;8.394;2023-03-19T06:07:52;5.28;;;3.00;;
45970;SDS011;31681;48.982;8.394;2023-03-19T06:10:44;3.75;;;2.55;;
45970;SDS011;31681;48.982;8.394;2023-03-19T06:13:11;5.53;;;3.08;;
45970;SDS011;31681;48.982;8.394;2023-03-19T06:15:41;4.47;;;2.83;;
45970;SDS011;31681;48.982;8.394;2023-03-19T06:18:29;6.13;;;2.83;;
45970;SDS011;31681;48.982;8.394;2023-03-19T06:20:57;5.28;;;3.20;;
45970;SDS011;31681;48.982;8.394;2023-03-19T06:23:23;5.97;;;2.83;;
45970;SDS011;31681;48.982;8.394;2023-03-19T06:25:48;5.25;;;3.05;;
45970;SDS011;31681;48.982;8.394;2023-03-19T06:28:14;6.00;;;3.05;;
45970;SDS011;31681;48.982;8.394;2023-03-19T06:30:43;5.05;;;2.42;;
45970;SDS011;31681;48.982;8.394;2023-03-19T06:33:28;7.03;;;3.40;;
45970;SDS011;31681;48.982;8.394;2023-03-19T06:35:57;4.75;;;3.05;;
45970;SDS011;31681;48.982;8.394;2023-03-19T06:38:23;8.82;;;4.63;;
45970;SDS011;31681;48.982;8.394;2023-03-19T06:40:48;11.35;;;6.70;;
45970;SDS011;31681;48.982;8.394;2023-03-19T06:43:14;10.77;;;6.97;;
45970;SDS011;31681;48.982;8.394;2023-03-19T06:45:40;9.57;;;6.82;;
45970;SDS011;31681;48.982;8.394;2023-03-19T06:48:05;8.65;;;5.50;;
45970;SDS011;31681;48.982;8.394;2023-03-19T06:50:31;9.82;;;3.60;;
45970;SDS011;31681;48.982;8.394;2023-03-19T06:52:57;5.65;;;3.40;;
45970;SDS011;31681;48.982;8.394;2023-03-19T06:55:22;3.95;;;3.05;;
45970;SDS011;31681;48.982;8.394;2023-03-19T06:57:48;5.55;;;3.72;;
45970;SDS011;31681;48.982;8.394;2023-03-19T07:00:15;5.07;;;3.90;;
45970;SDS011;31681;48.982;8.394;2023-03-19T07:02:42;7.47;;;4.00;;
45970;SDS011;31681;48.982;8.394;2023-03-19T07:05:09;10.70;;;5.20;;
45970;SDS011;31681;48.982;8.394;2023-03-19T07:07:34;13.75;;;7.45;;
45970;SDS011;31681;48.982;8.394;2023-03-19T07:10:00;13.40;;;7.13;;
45970;SDS011;31681;48.982;8.394;2023-03-19T07:12:27;13.95;;;6.85;;
45970;SDS011;31681;48.982;8.394;2023-03-19T07:14:53;10.18;;;4.97;;
45970;SDS011;31681;48.982;8.394;2023-03-19T07:17:22;8.85;;;4.63;;
45970;SDS011;31681;48.982;8.394;2023-03-19T07:19:48;8.15;;;4.00;;
45970;SDS011;31681;48.982;8.394;2023-03-19T07:22:14;6.15;;;3.28;;
45970;SDS011;31681;48.982;8.394;2023-03-19T07:24:40;7.30;;;4.30;;
45970;SDS011;31681;48.982;8.394;2023-03-19T07:27:06;9.05;;;5.47;;
45970;SDS011;31681;48.982;8.394;2023-03-19T07:29:31;11.73;;;5.53;;
45970;SDS011;31681;48.982;8.394;2023-03-19T07:31:57;10.00;;;5.03;;
45970;SDS011;31681;48.982;8.394;2023-03-19T07:34:23;7.60;;;5.20;;
45970;SDS011;31681;48.982;8.394;2023-03-19T07:36:48;9.35;;;4.85;;
45970;SDS011;31681;48.982;8.394;2023-03-19T07:39:15;8.15;;;5.00;;
45970;SDS011;31681;48.982;8.394;2023-03-19T07:41:41;6.95;;;3.67;;
45970;SDS011;31681;48.982;8.394;2023-03-19T07:44:12;5.45;;;3.70;;
45970;SDS011;31681;48.982;8.394;2023-03-19T07:46:38;6.88;;;3.85;;
45970;SDS011;31681;48.982;8.394;2023-03-19T07:49:04;6.07;;;3.70;;
45970;SDS011;31681;48.982;8.394;2023-03-19T07:51:30;4.80;;;3.33;;
45970;SDS011;31681;48.982;8.394;2023-03-19T07:54:49;9.93;;;3.60;;
45970;SDS011;31681;48.982;8.394;2023-03-19T07:57:15;5.85;;;3.35;;
45970;SDS011;31681;48.982;8.394;2023-03-19T07:59:41;5.55;;;2.88;;
45970;SDS011;31681;48.982;8.394;2023-03-19T08:02:10;6.05;;;3.40;;
45970;SDS011;31681;48.982;8.394;2023-03-19T08:04:36;5.30;;;3.22;;
45970;SDS011;31681;48.982;8.394;2023-03-19T08:07:01;5.38;;;2.85;;
45970;SDS011;31681;48.982;8.394;2023-03-19T08:09:27;5.28;;;2.95;;
45970;SDS011;31681;48.982;8.394;2023-03-19T08:11:53;4.95;;;2.88;;
45970;SDS011;31681;48.982;8.394;2023-03-19T08:14:27;6.78;;;3.15;;
45970;SDS011;31681;48.982;8.394;2023-03-19T08:17:12;4.63;;;2.83;;
45970;SDS011;31681;48.982;8.394;2023-03-19T08:19:39;6.28;;;3.00;;
45970;SDS011;31681;48.982;8.394;2023-03-19T08:22:05;6.78;;;2.97;;
45970;SDS011;31681;48.982;8.394;2023-03-19T08:24:31;5.18;;;2.95;;
45970;SDS011;31681;48.982;8.394;2023-03-19T08:26:57;3.83;;;3.00;;
45970;SDS011;31681;48.982;8.394;2023-03-19T08:29:22;4.93;;;2.70;;
45970;SDS011;31681;48.982;8.394;2023-03-19T08:31:50;4.50;;;3.00;;
45970;SDS011;31681;48.982;8.394;2023-03-19T08:34:16;4.88;;;2.45;;
45970;SDS011;31681;48.982;8.394;2023-03-19T08:36:41;5.80;;;2.75;;
45970;SDS011;31681;48.982;8.394;2023-03-19T08:39:07;4.18;;;3.33;;
45970;SDS011;31681;48.982;8.394;2023-03-19T08:41:32;4.85;;;3.20;;
45970;SDS011;31681;48.982;8.394;2023-03-19T08:43:58;4.38;;;2.83;;
45970;SDS011;31681;48.982;8.394;2023-03-19T08:46:23;4.38;;;2.88;;
45970;SDS011;31681;48.982;8.394;2023-03-19T08:48:54;4.50;;;2.53;;
45970;SDS011;31681;48.982;8.394;2023-03-19T08:51:20;3.80;;;2.40;;
45970;SDS011;31681;48.982;8.394;2023-03-19T08:53:47;5.72;;;3.10;;
45970;SDS011;31681;48.982;8.394;2023-03-19T08:56:13;4.00;;;2.50;;
45970;SDS011;31681;48.982;8.394;2023-03-19T08:58:40;2.40;;;2.20;;
45970;SDS011;31681;48.982;8.394;2023-03-19T09:01:10;5.05;;;2.00;;
45970;SDS011;31681;48.982;8.394;2023-03-19T09:03:41;3.78;;;2.00;;
45970;SDS011;31681;48.982;8.394;2023-03-19T09:06:08;3.13;;;2.13;;
45970;SDS011;31681;48.982;8.394;2023-03-19T09:08:35;3.42;;;1.90;;
45970;SDS011;31681;48.982;8.394;2023-03-19T09:11:02;2.92;;;2.30;;
45970;SDS011;31681;48.982;8.394;2023-03-19T09:13:29;5.25;;;2.38;;
45970;SDS011;31681;48.982;8.394;2023-03-19T09:15:55;2.90;;;1.95;;
45970;SDS011;31681;48.982;8.394;2023-03-19T09:18:20;3.08;;;1.60;;
45970;SDS011;31681;48.982;8.394;2023-03-19T09:20:48;2.75;;;1.70;;
45970;SDS011;31681;48.982;8.394;2023-03-19T09:23:15;4.47;;;1.90;;
45970;SDS011;31681;48.982;8.394;2023-03-19T09:25:40;2.47;;;1.80;;
45970;SDS011;31681;48.982;8.394;2023-03-19T09:28:06;8.80;;;2.30;;
45970;SDS011;31681;48.982;8.394;2023-03-19T09:30:31;4.32;;;2.25;;
45970;SDS011;31681;48.982;8.394;2023-03-19T09:32:57;2.10;;;1.90;;
45970;SDS011;31681;48.982;8.394;2023-03-19T09:35:22;5.00;;;2.08;;
45970;SDS011;31681;48.982;8.394;2023-03-19T09:37:49;3.45;;;2.08;;
45970;SDS011;31681;48.982;8.394;2023-03-19T09:40:18;4.65;;;2.22;;
45970;SDS011;31681;48.982;8.394;2023-03-19T09:45:45;7.63;;;2.40;;
45970;SDS011;31681;48.982;8.394;2023-03-19T09:48:13;4.22;;;1.92;;
45970;SDS011;31681;48.982;8.394;2023-03-19T09:51:04;2.17;;;1.77;;
45970;SDS011;31681;48.982;8.394;2023-03-19T09:53:53;3.17;;;1.88;;
45970;SDS011;31681;48.982;8.394;2023-03-19T09:56:23;3.08;;;1.60;;
45970;SDS011;31681;48.982;8.394;2023-03-19T09:58:56;2.25;;;1.58;;
45970;SDS011;31681;48.982;8.394;2023-03-19T10:01:25;3.80;;;1.92;;
45970;SDS011;31681;48.982;8.394;2023-03-19T10:06:37;2.38;;;1.55;;
45970;SDS011;31681;48.982;8.394;2023-03-19T10:17:00;3.78;;;1.80;;
45970;SDS011;31681;48.982;8.394;2023-03-19T10:19:33;3.45;;;1.88;;
45970;SDS011;31681;48.982;8.394;2023-03-19T10:22:06;2.63;;;2.00;;
45970;SDS011;31681;48.982;8.394;2023-03-19T10:24:39;5.45;;;1.92;;
45970;SDS011;31681;48.982;8.394;2023-03-19T10:27:12;3.45;;;2.17;;
45970;SDS011;31681;48.982;8.394;2023-03-19T10:29:41;4.78;;;2.03;;
45970;SDS011;31681;48.982;8.394;2023-03-19T10:34:44;3.67;;;2.03;;
45970;SDS011;31681;48.982;8.394;2023-03-19T10:39:46;3.30;;;1.60;;
45970;SDS011;31681;48.982;8.394;2023-03-19T10:47:46;3.08;;;1.95;;
45970;SDS011;31681;48.982;8.394;2023-03-19T10:50:16;5.40;;;2.25;;
45970;SDS011;31681;48.982;8.394;2023-03-19T10:52:43;5.35;;;1.77;;
45970;SDS011;31681;48.982;8.394;2023-03-19T10:55:16;4.68;;;2.10;;
45970;SDS011;31681;48.982;8.394;2023-03-19T10:57:48;2.92;;;1.70;;
45970;SDS011;31681;48.982;8.394;2023-03-19T11:00:16;2.65;;;1.50;;
45970;SDS011;31681;48.982;8.394;2023-03-19T11:02:47;3.15;;;1.90;;
45970;SDS011;31681;48.982;8.394;2023-03-19T11:07:45;3.25;;;1.70;;
45970;SDS011;31681;48.982;8.394;2023-03-19T11:10:14;3.28;;;2.08;;
45970;SDS011;31681;48.982;8.394;2023-03-19T11:12:41;3.83;;;2.03;;
45970;SDS011;31681;48.982;8.394;2023-03-19T11:15:20;3.88;;;2.25;;
45970;SDS011;31681;48.982;8.394;2023-03-19T11:18:00;3.33;;;1.73;;
45970;SDS011;31681;48.982;8.394;2023-03-19T11:20:37;3.97;;;2.45;;
45970;SDS011;31681;48.982;8.394;2023-03-19T11:23:10;5.20;;;2.10;;
45970;SDS011;31681;48.982;8.394;2023-03-19T11:25:40;4.90;;;2.13;;
45970;SDS011;31681;48.982;8.394;2023-03-19T11:28:16;5.18;;;2.25;;
45970;SDS011;31681;48.982;8.394;2023-03-19T11:42:18;4.55;;;2.00;;
45970;SDS011;31681;48.982;8.394;2023-03-19T11:55:30;3.25;;;1.92;;
45970;SDS011;31681;48.982;8.394;2023-03-19T12:00:47;4.68;;;2.08;;
45970;SDS011;31681;48.982;8.394;2023-03-19T12:09:08;4.45;;;1.90;;
45970;SDS011;31681;48.982;8.394;2023-03-19T12:11:51;4.43;;;2.25;;
45970;SDS011;31681;48.982;8.394;2023-03-19T12:14:41;3.83;;;1.85;;
45970;SDS011;31681;48.982;8.394;2023-03-19T12:28:44;7.28;;;2.40;;
45970;SDS011;31681;48.982;8.394;2023-03-19T12:31:51;5.88;;;2.20;;
45970;SDS011;31681;48.982;8.394;2023-03-19T12:34:54;4.35;;;2.20;;
45970;SDS011;31681;48.982;8.394;2023-03-19T12:40:40;5.22;;;1.98;;
45970;SDS011;31681;48.982;8.394;2023-03-19T12:46:23;4.43;;;2.08;;
45970;SDS011;31681;48.982;8.394;2023-03-19T12:52:10;3.47;;;2.70;;
45970;SDS011;31681;48.982;8.394;2023-03-19T12:58:11;4.30;;;2.35;;
45970;SDS011;31681;48.982;8.394;2023-03-19T13:01:07;2.47;;;2.28;;
45970;SDS011;31681;48.982;8.394;2023-03-19T13:04:09;5.70;;;2.15;;
45970;SDS011;31681;48.982;8.394;2023-03-19T13:06:51;3.95;;;2.00;;
45970;SDS011;31681;48.982;8.394;2023-03-19T13:11:59;4.18;;;2.50;;
45970;SDS011;31681;48.982;8.394;2023-03-19T13:14:41;2.83;;;2.47;;
45970;SDS011;31681;48.982;8.394;2023-03-19T13:20:31;3.90;;;2.25;;
45970;SDS011;31681;48.982;8.394;2023-03-19T13:23:21;7.75;;;2.55;;
45970;SDS011;31681;48.982;8.394;2023-03-19T13:25:51;3.13;;;2.33;;
45970;SDS011;31681;48.982;8.394;2023-03-19T13:28:52;4.00;;;2.25;;
45970;SDS011;31681;48.982;8.394;2023-03-19T13:31:24;3.40;;;2.20;;
45970;SDS011;31681;48.982;8.394;2023-03-19T13:34:03;3.28;;;2.30;;
45970;SDS011;31681;48.982;8.394;2023-03-19T13:36:37;4.68;;;2.50;;
45970;SDS011;31681;48.982;8.394;2023-03-19T13:39:08;5.75;;;2.70;;
45970;SDS011;31681;48.982;8.394;2023-03-19T13:41:49;4.25;;;2.35;;
45970;SDS011;31681;48.982;8.394;2023-03-19T13:47:33;4.75;;;2.75;;
45970;SDS011;31681;48.982;8.394;2023-03-19T13:57:52;6.25;;;3.40;;
45970;SDS011;31681;48.982;8.394;2023-03-19T14:03:18;5.18;;;3.05;;
45970;SDS011;31681;48.982;8.394;2023-03-19T14:12:43;7.75;;;2.53;;
45970;SDS011;31681;48.982;8.394;2023-03-19T14:25:21;3.50;;;2.60;;
45970;SDS011;31681;48.982;8.394;2023-03-19T14:27:56;5.22;;;3.05;;
45970;SDS011;31681;48.982;8.394;2023-03-19T14:33:00;4.50;;;3.50;;
45970;SDS011;31681;48.982;8.394;2023-03-19T14:35:38;3.53;;;2.38;;
45970;SDS011;31681;48.982;8.394;2023-03-19T14:40:49;5.15;;;2.90;;
45970;SDS011;31681;48.982;8.394;2023-03-19T14:43:24;5.57;;;2.50;;
45970;SDS011;31681;48.982;8.394;2023-03-19T14:46:24;3.92;;;2.42;;
45970;SDS011;31681;48.982;8.394;2023-03-19T14:49:26;3.13;;;2.65;;
45970;SDS011;31681;48.982;8.394;2023-03-19T14:52:22;3.50;;;2.38;;
45970;SDS011;31681;48.982;8.394;2023-03-19T14:54:54;3.08;;;2.40;;
45970;SDS011;31681;48.982;8.394;2023-03-19T14:57:31;5.20;;;2.40;;
45970;SDS011;31681;48.982;8.394;2023-03-19T15:00:17;2.85;;;2.35;;
45970;SDS011;31681;48.982;8.394;2023-03-19T15:05:27;4.05;;;2.22;;
45970;SDS011;31681;48.982;8.394;2023-03-19T15:08:05;5.55;;;2.40;;
45970;SDS011;31681;48.982;8.394;2023-03-19T15:18:56;4.43;;;2.75;;
45970;SDS011;31681;48.982;8.394;2023-03-19T15:21:24;4.20;;;2.20;;
45970;SDS011;31681;48.982;8.394;2023-03-19T15:23:50;4.38;;;2.38;;
45970;SDS011;31681;48.982;8.394;2023-03-19T15:26:27;5.05;;;2.30;;
45970;SDS011;31681;48.982;8.394;2023-03-19T15:28:57;3.22;;;2.22;;
45970;SDS011;31681;48.982;8.394;2023-03-19T15:31:22;4.72;;;2.08;;
45970;SDS011;31681;48.982;8.394;2023-03-19T15:34:16;3.30;;;2.15;;
45970;SDS011;31681;48.982;8.394;2023-03-19T15:36:45;3.42;;;2.22;;
45970;SDS011;31681;48.982;8.394;2023-03-19T15:39:17;3.33;;;1.83;;
45970;SDS011;31681;48.982;8.394;2023-03-19T15:41:45;4.68;;;2.15;;
45970;SDS011;31681;48.982;8.394;2023-03-19T15:44:15;4.55;;;1.75;;
45970;SDS011;31681;48.982;8.394;2023-03-19T15:46:46;2.83;;;1.90;;
45970;SDS011;31681;48.982;8.394;2023-03-19T15:49:22;1.85;;;1.73;;
45970;SDS011;31681;48.982;8.394;2023-03-19T15:51:53;3.75;;;2.00;;
45970;SDS011;31681;48.982;8.394;2023-03-19T15:54:23;2.83;;;2.28;;
45970;SDS011;31681;48.982;8.394;2023-03-19T15:56:51;3.00;;;1.70;;
45970;SDS011;31681;48.982;8.394;2023-03-19T15:59:17;3.03;;;2.00;;
45970;SDS011;31681;48.982;8.394;2023-03-19T16:01:46;5.90;;;1.90;;
45970;SDS011;31681;48.982;8.394;2023-03-19T16:04:15;2.38;;;1.83;;
45970;SDS011;31681;48.982;8.394;2023-03-19T16:06:47;2.13;;;1.80;;
45970;SDS011;31681;48.982;8.394;2023-03-19T16:09:43;2.10;;;1.80;;
45970;SDS011;31681;48.982;8.394;2023-03-19T16:14:58;2.72;;;2.25;;
45970;SDS011;31681;48.982;8.394;2023-03-19T16:17:32;4.07;;;1.92;;
45970;SDS011;31681;48.982;8.394;2023-03-19T16:19:59;3.85;;;1.85;;
45970;SDS011;31681;48.982;8.394;2023-03-19T16:22:28;6.50;;;2.28;;
45970;SDS011;31681;48.982;8.394;2023-03-19T16:24:55;4.45;;;2.40;;
45970;SDS011;31681;48.982;8.394;2023-03-19T16:27:37;2.28;;;1.67;;
45970;SDS011;31681;48.982;8.394;2023-03-19T16:30:24;7.75;;;1.65;;
45970;SDS011;31681;48.982;8.394;2023-03-19T16:33:03;3.25;;;1.30;;
45970;SDS011;31681;48.982;8.394;2023-03-19T16:35:31;2.05;;;1.50;;
45970;SDS011;31681;48.982;8.394;2023-03-19T16:38:16;1.70;;;1.30;;
45970;SDS011;31681;48.982;8.394;2023-03-19T16:40:47;1.77;;;0.90;;
45970;SDS011;31681;48.982;8.394;2023-03-19T16:43:15;0.98;;;0.82;;
45970;SDS011;31681;48.982;8.394;2023-03-19T16:45:51;1.73;;;1.20;;
45970;SDS011;31681;48.982;8.394;2023-03-19T16:48:29;3.42;;;1.50;;
45970;SDS011;31681;48.982;8.394;2023-03-19T16:50:55;2.03;;;1.90;;
45970;SDS011;31681;48.982;8.394;2023-03-19T16:53:21;2.88;;;2.03;;
45970;SDS011;31681;48.982;8.394;2023-03-19T16:55:49;2.00;;;1.50;;
45970;SDS011;31681;48.982;8.394;2023-03-19T16:58:18;1.83;;;1.65;;
45970;SDS011;31681;48.982;8.394;2023-03-19T17:00:56;2.63;;;1.92;;
45970;SDS011;31681;48.982;8.394;2023-03-19T17:03:21;3.70;;;2.03;;
45970;SDS011;31681;48.982;8.394;2023-03-19T17:05:47;2.90;;;2.30;;
45970;SDS011;31681;48.982;8.394;2023-03-19T17:08:13;3.72;;;3.03;;
45970;SDS011;31681;48.982;8.394;2023-03-19T17:10:41;6.00;;;2.90;;
45970;SDS011;31681;48.982;8.394;2023-03-19T17:13:17;3.33;;;2.88;;
45970;SDS011;31681;48.982;8.394;2023-03-19T17:15:52;8.05;;;3.40;;
45970;SDS011;31681;48.982;8.394;2023-03-19T17:18:24;3.80;;;3.45;;
45970;SDS011;31681;48.982;8.394;2023-03-19T17:21:04;3.95;;;3.17;;
45970;SDS011;31681;48.982;8.394;2023-03-19T17:23:35;3.47;;;3.17;;
45970;SDS011;31681;48.982;8.394;2023-03-19T17:26:14;4.05;;;2.78;;
45970;SDS011;31681;48.982;8.394;2023-03-19T17:28:48;3.63;;;2.63;;
45970;SDS011;31681;48.982;8.394;2023-03-19T17:34:10;2.83;;;2.50;;
45970;SDS011;31681;48.982;8.394;2023-03-19T17:36:51;2.50;;;2.20;;